sensor_id;sensor_type;location;lat;lon;timestamp;pressure;altitude;pressure_sealevel;temperature;humidity
72157;BME280;60035;52.122;5.406;2023-04-27T00:01:48;102347.94;;;2.01;93.51
72157;BME280;60035;52.122;5.406;2023-04-27T00:04:15;102348.66;;;1.97;93.35
72157;BME280;60035;52.122;5.406;2023-04-27T00:06:42;102347.03;;;1.97;93.67
72157;BME280;60035;52.122;5.406;2023-04-27T00:09:08;102350.34;;;1.96;93.23
72157;BME280;60035;52.122;5.406;2023-04-27T00:11:35;102346.97;;;1.96;93.19
72157;BME280;60035;52.122;5.406;2023-04-27T00:14:01;102351.97;;;1.94;93.12
72157;BME280;60035;52.122;5.406;2023-04-27T00:16:28;102353.59;;;1.92;93.34
72157;BME280;60035;52.122;5.406;2023-04-27T00:18:54;102355.22;;;1.90;93.56
72157;BME280;60035;52.122;5.406;2023-04-27T00:21:21;102350.06;;;1.87;93.44
72157;BME280;60035;52.122;5.406;2023-04-27T00:23:47;102358.25;;;1.80;93.17
72157;BME280;60035;52.122;5.406;2023-04-27T00:26:13;102354.84;;;1.78;93.49
72157;BME280;60035;52.122;5.406;2023-04-27T00:28:40;102354.00;;;1.77;93.86
72157;BME280;60035;52.122;5.406;2023-04-27T00:31:06;102354.69;;;1.73;94.01
72157;BME280;60035;52.122;5.406;2023-04-27T00:33:32;102354.63;;;1.72;94.16
72157;BME280;60035;52.122;5.406;2023-04-27T00:36:00;102347.00;;;1.70;94.62
72157;BME280;60035;52.122;5.406;2023-04-27T00:38:27;102350.47;;;1.72;94.21
72157;BME280;60035;52.122;5.406;2023-04-27T00:41:01;102350.28;;;1.67;94.39
72157;BME280;60035;52.122;5.406;2023-04-27T00:43:28;102346.72;;;1.61;94.44
72157;BME280;60035;52.122;5.406;2023-04-27T00:45:55;102348.34;;;1.59;94.98
72157;BME280;60035;52.122;5.406;2023-04-27T00:48:22;102344.75;;;1.52;95.04
72157;BME280;60035;52.122;5.406;2023-04-27T00:50:48;102347.97;;;1.48;95.23
72157;BME280;60035;52.122;5.406;2023-04-27T00:53:15;102353.69;;;1.42;95.67
72157;BME280;60035;52.122;5.406;2023-04-27T00:55:42;102353.59;;;1.39;95.97
72157;BME280;60035;52.122;5.406;2023-04-27T00:58:08;102352.59;;;1.34;96.24
72157;BME280;60035;52.122;5.406;2023-04-27T01:00:35;102360.16;;;1.34;96.40
72157;BME280;60035;52.122;5.406;2023-04-27T01:03:02;102347.44;;;1.31;96.39
72157;BME280;60035;52.122;5.406;2023-04-27T01:05:29;102349.00;;;1.27;96.76
72157;BME280;60035;52.122;5.406;2023-04-27T01:07:58;102339.06;;;1.32;97.27
72157;BME280;60035;52.122;5.406;2023-04-27T01:10:24;102334.22;;;1.38;97.17
72157;BME280;60035;52.122;5.406;2023-04-27T01:12:50;102336.94;;;1.44;96.97
72157;BME280;60035;52.122;5.406;2023-04-27T01:15:17;102333.59;;;1.45;96.84
72157;BME280;60035;52.122;5.406;2023-04-27T01:17:43;102325.09;;;1.42;96.67
72157;BME280;60035;52.122;5.406;2023-04-27T01:20:10;102336.75;;;1.38;96.59
72157;BME280;60035;52.122;5.406;2023-04-27T01:22:37;102334.94;;;1.34;97.31
72157;BME280;60035;52.122;5.406;2023-04-27T01:25:04;102336.53;;;1.32;97.31
72157;BME280;60035;52.122;5.406;2023-04-27T01:27:31;102338.03;;;1.27;97.04
72157;BME280;60035;52.122;5.406;2023-04-27T01:29:58;102341.28;;;1.23;97.30
72157;BME280;60035;52.122;5.406;2023-04-27T01:32:24;102349.56;;;1.19;97.59
72157;BME280;60035;52.122;5.406;2023-04-27T01:34:51;102354.69;;;1.22;97.66
72157;BME280;60035;52.122;5.406;2023-04-27T01:37:17;102346.22;;;1.20;97.84
72157;BME280;60035;52.122;5.406;2023-04-27T01:39:44;102340.53;;;1.25;97.63
72157;BME280;60035;52.122;5.406;2023-04-27T01:42:10;102333.69;;;1.23;97.38
72157;BME280;60035;52.122;5.406;2023-04-27T01:44:37;102338.72;;;1.21;97.50
72157;BME280;60035;52.122;5.406;2023-04-27T01:47:03;102331.00;;;1.16;97.62
72157;BME280;60035;52.122;5.406;2023-04-27T01:49:30;102323.31;;;1.13;98.23
72157;BME280;60035;52.122;5.406;2023-04-27T01:51:56;102314.88;;;1.13;98.20
72157;BME280;60035;52.122;5.406;2023-04-27T01:54:22;102319.97;;;1.14;98.95
72157;BME280;60035;52.122;5.406;2023-04-27T01:56:52;102319.06;;;1.12;99.02
72157;BME280;60035;52.122;5.406;2023-04-27T01:59:18;102319.19;;;1.15;99.31
72157;BME280;60035;52.122;5.406;2023-04-27T02:01:44;102320.84;;;1.15;99.43
72157;BME280;60035;52.122;5.406;2023-04-27T02:04:11;102314.84;;;1.11;99.51
72157;BME280;60035;52.122;5.406;2023-04-27T02:06:38;102323.16;;;1.09;99.46
72157;BME280;60035;52.122;5.406;2023-04-27T02:09:04;102324.66;;;1.04;99.16
72157;BME280;60035;52.122;5.406;2023-04-27T02:11:30;102321.09;;;0.97;99.41
72157;BME280;60035;52.122;5.406;2023-04-27T02:13:57;102324.41;;;0.96;99.91
72157;BME280;60035;52.122;5.406;2023-04-27T02:16:23;102330.16;;;0.92;100.00
72157;BME280;60035;52.122;5.406;2023-04-27T02:18:50;102327.47;;;0.87;100.00
72157;BME280;60035;52.122;5.406;2023-04-27T02:21:18;102325.78;;;0.86;100.00
72157;BME280;60035;52.122;5.406;2023-04-27T02:23:45;102325.63;;;0.83;100.00
72157;BME280;60035;52.122;5.406;2023-04-27T02:26:18;102331.66;;;0.87;100.00
72157;BME280;60035;52.122;5.406;2023-04-27T02:28:45;102325.63;;;0.83;100.00
72157;BME280;60035;52.122;5.406;2023-04-27T02:31:15;102333.84;;;0.77;100.00
72157;BME280;60035;52.122;5.406;2023-04-27T02:33:42;102325.31;;;0.74;100.00
72157;BME280;60035;52.122;5.406;2023-04-27T02:36:08;102321.16;;;0.74;100.00
72157;BME280;60035;52.122;5.406;2023-04-27T02:38:35;102321.06;;;0.73;100.00
72157;BME280;60035;52.122;5.406;2023-04-27T02:41:01;102324.44;;;0.72;100.00
72157;BME280;60035;52.122;5.406;2023-04-27T02:43:28;102315.97;;;0.71;100.00
72157;BME280;60035;52.122;5.406;2023-04-27T02:45:54;102314.22;;;0.69;100.00
72157;BME280;60035;52.122;5.406;2023-04-27T02:48:21;102306.66;;;0.69;100.00
72157;BME280;60035;52.122;5.406;2023-04-27T02:50:47;102310.84;;;0.68;100.00
72157;BME280;60035;52.122;5.406;2023-04-27T02:53:13;102314.72;;;0.58;100.00
72157;BME280;60035;52.122;5.406;2023-04-27T02:55:44;102306.97;;;0.54;100.00
72157;BME280;60035;52.122;5.406;2023-04-27T02:58:15;102303.75;;;0.58;100.00
72157;BME280;60035;52.122;5.406;2023-04-27T03:00:42;102306.31;;;0.59;100.00
72157;BME280;60035;52.122;5.406;2023-04-27T03:03:09;102304.50;;;0.55;100.00
72157;BME280;60035;52.122;5.406;2023-04-27T03:05:35;102307.81;;;0.54;100.00
72157;BME280;60035;52.122;5.406;2023-04-27T03:08:02;102313.78;;;0.56;100.00
72157;BME280;60035;52.122;5.406;2023-04-27T03:10:29;102318.72;;;0.53;100.00
72157;BME280;60035;52.122;5.406;2023-04-27T03:12:55;102312.81;;;0.53;100.00
72157;BME280;60035;52.122;5.406;2023-04-27T03:15:22;102317.84;;;0.53;100.00
72157;BME280;60035;52.122;5.406;2023-04-27T03:17:48;102323.59;;;0.48;100.00
72157;BME280;60035;52.122;5.406;2023-04-27T03:20:15;102325.22;;;0.46;100.00
72157;BME280;60035;52.122;5.406;2023-04-27T03:22:41;102325.97;;;0.44;100.00
72157;BME280;60035;52.122;5.406;2023-04-27T03:25:10;102322.47;;;0.40;100.00
72157;BME280;60035;52.122;5.406;2023-04-27T03:27:37;102331.56;;;0.37;100.00
72157;BME280;60035;52.122;5.406;2023-04-27T03:30:04;102330.66;;;0.35;100.00
72157;BME280;60035;52.122;5.406;2023-04-27T03:32:30;102322.34;;;0.37;100.00
72157;BME280;60035;52.122;5.406;2023-04-27T03:34:57;102324.06;;;0.38;100.00
72157;BME280;60035;52.122;5.406;2023-04-27T03:37:23;102322.22;;;0.34;100.00
72157;BME280;60035;52.122;5.406;2023-04-27T03:39:50;102327.13;;;0.29;100.00
72157;BME280;60035;52.122;5.406;2023-04-27T03:42:17;102326.38;;;0.32;100.00
72157;BME280;60035;52.122;5.406;2023-04-27T03:44:44;102331.41;;;0.32;100.00
72157;BME280;60035;52.122;5.406;2023-04-27T03:47:10;102325.53;;;0.33;100.00
72157;BME280;60035;52.122;5.406;2023-04-27T03:49:37;102324.59;;;0.29;100.00
72157;BME280;60035;52.122;5.406;2023-04-27T03:52:03;102330.25;;;0.24;100.00
72157;BME280;60035;52.122;5.406;2023-04-27T03:54:30;102331.13;;;0.24;100.00
72157;BME280;60035;52.122;5.406;2023-04-27T03:56:57;102326.19;;;0.27;100.00
72157;BME280;60035;52.122;5.406;2023-04-27T03:59:23;102330.25;;;0.24;100.00
72157;BME280;60035;52.122;5.406;2023-04-27T04:01:50;102329.34;;;0.22;100.00
72157;BME280;60035;52.122;5.406;2023-04-27T04:04:17;102323.41;;;0.21;100.00
72157;BME280;60035;52.122;5.406;2023-04-27T04:06:43;102321.69;;;0.19;100.00
72157;BME280;60035;52.122;5.406;2023-04-27T04:09:10;102327.56;;;0.19;100.00
72157;BME280;60035;52.122;5.406;2023-04-27T04:11:38;102327.38;;;0.14;100.00
72157;BME280;60035;52.122;5.406;2023-04-27T04:14:04;102322.91;;;0.07;100.00
72157;BME280;60035;52.122;5.406;2023-04-27T04:16:32;102331.31;;;0.08;100.00
72157;BME280;60035;52.122;5.406;2023-04-27T04:18:59;102333.09;;;0.10;100.00
72157;BME280;60035;52.122;5.406;2023-04-27T04:21:25;102323.84;;;0.09;100.00
72157;BME280;60035;52.122;5.406;2023-04-27T04:23:51;102338.78;;;0.05;100.00
72157;BME280;60035;52.122;5.406;2023-04-27T04:26:18;102340.44;;;0.04;100.00
72157;BME280;60035;52.122;5.406;2023-04-27T04:28:45;102342.13;;;0.05;100.00
72157;BME280;60035;52.122;5.406;2023-04-27T04:31:11;102351.38;;;0.05;100.00
72157;BME280;60035;52.122;5.406;2023-04-27T04:33:38;102343.56;;;-0.02;100.00
72157;BME280;60035;52.122;5.406;2023-04-27T04:36:05;102353.63;;;-0.02;100.00
72157;BME280;60035;52.122;5.406;2023-04-27T04:38:32;102350.97;;;-0.06;100.00
72157;BME280;60035;52.122;5.406;2023-04-27T04:40:58;102356.78;;;-0.07;100.00
72157;BME280;60035;52.122;5.406;2023-04-27T04:43:25;102355.06;;;-0.08;100.00
72157;BME280;60035;52.122;5.406;2023-04-27T04:45:51;102360.41;;;-0.01;100.00
72157;BME280;60035;52.122;5.406;2023-04-27T04:48:18;102358.75;;;0.00;100.00
72157;BME280;60035;52.122;5.406;2023-04-27T04:50:45;102363.09;;;0.04;100.00
72157;BME280;60035;52.122;5.406;2023-04-27T04:53:12;102369.94;;;0.07;100.00
72157;BME280;60035;52.122;5.406;2023-04-27T04:55:38;102360.75;;;0.09;100.00
72157;BME280;60035;52.122;5.406;2023-04-27T04:58:04;102366.78;;;0.12;100.00
72157;BME280;60035;52.122;5.406;2023-04-27T05:00:31;102359.38;;;0.17;100.00
72157;BME280;60035;52.122;5.406;2023-04-27T05:02:57;102359.66;;;0.25;100.00
72157;BME280;60035;52.122;5.406;2023-04-27T05:05:24;102359.03;;;0.30;100.00
72157;BME280;60035;52.122;5.406;2023-04-27T05:07:51;102363.56;;;0.39;100.00
72157;BME280;60035;52.122;5.406;2023-04-27T05:10:17;102361.28;;;0.45;100.00
72157;BME280;60035;52.122;5.406;2023-04-27T05:12:44;102354.72;;;0.49;100.00
72157;BME280;60035;52.122;5.406;2023-04-27T05:15:10;102358.91;;;0.50;100.00
72157;BME280;60035;52.122;5.406;2023-04-27T05:17:37;102354.13;;;0.56;100.00
72157;BME280;60035;52.122;5.406;2023-04-27T05:20:04;102352.63;;;0.61;100.00
72157;BME280;60035;52.122;5.406;2023-04-27T05:22:30;102355.38;;;0.68;100.00
72157;BME280;60035;52.122;5.406;2023-04-27T05:24:57;102353.97;;;0.76;100.00
72157;BME280;60035;52.122;5.406;2023-04-27T05:27:24;102349.13;;;0.82;100.00
72157;BME280;60035;52.122;5.406;2023-04-27T05:29:50;102356.03;;;0.86;100.00
72157;BME280;60035;52.122;5.406;2023-04-27T05:32:16;102357.19;;;0.96;100.00
72157;BME280;60035;52.122;5.406;2023-04-27T05:34:43;102356.66;;;1.05;100.00
72157;BME280;60035;52.122;5.406;2023-04-27T05:37:12;102359.59;;;1.17;100.00
72157;BME280;60035;52.122;5.406;2023-04-27T05:39:39;102367.53;;;1.28;100.00
72157;BME280;60035;52.122;5.406;2023-04-27T05:42:05;102369.66;;;1.41;100.00
72157;BME280;60035;52.122;5.406;2023-04-27T05:44:32;102370.09;;;1.55;100.00
72157;BME280;60035;52.122;5.406;2023-04-27T05:46:58;102367.97;;;1.67;100.00
72157;BME280;60035;52.122;5.406;2023-04-27T05:49:25;102365.75;;;1.77;100.00
72157;BME280;60035;52.122;5.406;2023-04-27T05:51:51;102370.31;;;1.89;100.00
72157;BME280;60035;52.122;5.406;2023-04-27T05:54:18;102360.59;;;2.01;100.00
72157;BME280;60035;52.122;5.406;2023-04-27T05:56:45;102374.31;;;2.09;100.00
72157;BME280;60035;52.122;5.406;2023-04-27T05:59:11;102362.81;;;2.19;100.00
72157;BME280;60035;52.122;5.406;2023-04-27T06:01:38;102362.41;;;2.34;100.00
72157;BME280;60035;52.122;5.406;2023-04-27T06:04:05;102361.06;;;2.45;100.00
72157;BME280;60035;52.122;5.406;2023-04-27T06:06:33;102360.59;;;2.59;100.00
72157;BME280;60035;52.122;5.406;2023-04-27T06:09:00;102362.63;;;2.72;100.00
72157;BME280;60035;52.122;5.406;2023-04-27T06:11:27;102352.78;;;2.81;100.00
72157;BME280;60035;52.122;5.406;2023-04-27T06:13:53;102368.34;;;2.95;100.00
72157;BME280;60035;52.122;5.406;2023-04-27T06:16:20;102364.41;;;3.07;100.00
72157;BME280;60035;52.122;5.406;2023-04-27T06:18:48;102359.53;;;3.14;100.00
72157;BME280;60035;52.122;5.406;2023-04-27T06:21:15;102347.06;;;3.21;100.00
72157;BME280;60035;52.122;5.406;2023-04-27T06:23:42;102351.47;;;3.29;100.00
72157;BME280;60035;52.122;5.406;2023-04-27T06:26:08;102357.63;;;3.38;100.00
72157;BME280;60035;52.122;5.406;2023-04-27T06:28:35;102354.50;;;3.48;100.00
72157;BME280;60035;52.122;5.406;2023-04-27T06:31:01;102364.00;;;3.58;100.00
72157;BME280;60035;52.122;5.406;2023-04-27T06:33:28;102362.56;;;3.68;100.00
72157;BME280;60035;52.122;5.406;2023-04-27T06:35:54;102355.97;;;3.75;100.00
72157;BME280;60035;52.122;5.406;2023-04-27T06:38:20;102357.03;;;3.84;100.00
72157;BME280;60035;52.122;5.406;2023-04-27T06:40:50;102355.63;;;3.97;100.00
72157;BME280;60035;52.122;5.406;2023-04-27T06:43:18;102357.53;;;4.06;100.00
72157;BME280;60035;52.122;5.406;2023-04-27T06:45:45;102353.50;;;4.16;100.00
72157;BME280;60035;52.122;5.406;2023-04-27T06:48:11;102358.91;;;4.31;100.00
72157;BME280;60035;52.122;5.406;2023-04-27T06:50:38;102359.19;;;4.45;100.00
72157;BME280;60035;52.122;5.406;2023-04-27T06:53:05;102355.25;;;4.60;100.00
72157;BME280;60035;52.122;5.406;2023-04-27T06:55:31;102360.53;;;4.72;100.00
72157;BME280;60035;52.122;5.406;2023-04-27T06:57:58;102354.06;;;4.87;100.00
72157;BME280;60035;52.122;5.406;2023-04-27T07:00:24;102354.28;;;4.97;100.00
72157;BME280;60035;52.122;5.406;2023-04-27T07:02:52;102354.47;;;5.08;100.00
72157;BME280;60035;52.122;5.406;2023-04-27T07:05:18;102358.06;;;5.21;100.00
72157;BME280;60035;52.122;5.406;2023-04-27T07:07:45;102363.38;;;5.35;100.00
72157;BME280;60035;52.122;5.406;2023-04-27T07:10:11;102358.50;;;5.49;99.87
72157;BME280;60035;52.122;5.406;2023-04-27T07:12:38;102359.59;;;5.63;99.33
72157;BME280;60035;52.122;5.406;2023-04-27T07:15:05;102357.28;;;5.79;98.42
72157;BME280;60035;52.122;5.406;2023-04-27T07:17:32;102362.53;;;5.91;97.40
72157;BME280;60035;52.122;5.406;2023-04-27T07:20:03;102365.31;;;6.05;96.34
72157;BME280;60035;52.122;5.406;2023-04-27T07:22:32;102362.13;;;6.19;95.57
72157;BME280;60035;52.122;5.406;2023-04-27T07:24:58;102361.41;;;6.30;94.44
72157;BME280;60035;52.122;5.406;2023-04-27T07:27:24;102363.28;;;6.42;93.37
72157;BME280;60035;52.122;5.406;2023-04-27T07:29:51;102358.31;;;6.55;91.65
72157;BME280;60035;52.122;5.406;2023-04-27T07:32:18;102359.34;;;6.69;90.88
72157;BME280;60035;52.122;5.406;2023-04-27T07:34:46;102356.97;;;6.84;89.98
72157;BME280;60035;52.122;5.406;2023-04-27T07:37:19;102346.94;;;7.00;89.87
72157;BME280;60035;52.122;5.406;2023-04-27T07:39:47;102344.50;;;7.11;87.60
72157;BME280;60035;52.122;5.406;2023-04-27T07:42:14;102354.84;;;7.26;87.21
72157;BME280;60035;52.122;5.406;2023-04-27T07:44:41;102348.13;;;7.38;84.90
72157;BME280;60035;52.122;5.406;2023-04-27T07:47:07;102346.53;;;7.49;83.37
72157;BME280;60035;52.122;5.406;2023-04-27T07:49:34;102350.84;;;7.61;82.37
72157;BME280;60035;52.122;5.406;2023-04-27T07:52:01;102350.06;;;7.71;80.77
72157;BME280;60035;52.122;5.406;2023-04-27T07:54:27;102342.47;;;7.80;80.55
72157;BME280;60035;52.122;5.406;2023-04-27T07:56:54;102350.16;;;7.90;79.71
72157;BME280;60035;52.122;5.406;2023-04-27T07:59:21;102348.53;;;7.96;79.21
72157;BME280;60035;52.122;5.406;2023-04-27T08:01:47;102343.50;;;8.07;77.75
72157;BME280;60035;52.122;5.406;2023-04-27T08:04:14;102344.38;;;8.14;77.52
72157;BME280;60035;52.122;5.406;2023-04-27T08:06:41;102344.38;;;8.18;75.91
72157;BME280;60035;52.122;5.406;2023-04-27T08:09:09;102345.25;;;8.22;75.81
72157;BME280;60035;52.122;5.406;2023-04-27T08:11:35;102344.41;;;8.25;74.95
72157;BME280;60035;52.122;5.406;2023-04-27T08:14:02;102348.69;;;8.32;75.32
72157;BME280;60035;52.122;5.406;2023-04-27T08:16:28;102350.50;;;8.47;74.58
72157;BME280;60035;52.122;5.406;2023-04-27T08:18:55;102347.97;;;8.56;73.14
72157;BME280;60035;52.122;5.406;2023-04-27T08:21:23;102348.00;;;8.72;73.73
72157;BME280;60035;52.122;5.406;2023-04-27T08:23:50;102348.03;;;8.89;73.74
72157;BME280;60035;52.122;5.406;2023-04-27T08:26:16;102339.56;;;9.07;73.26
72157;BME280;60035;52.122;5.406;2023-04-27T08:28:43;102342.97;;;9.13;71.10
72157;BME280;60035;52.122;5.406;2023-04-27T08:31:09;102346.38;;;9.22;70.13
72157;BME280;60035;52.122;5.406;2023-04-27T08:33:36;102347.25;;;9.27;69.29
72157;BME280;60035;52.122;5.406;2023-04-27T08:36:03;102346.38;;;9.31;68.59
72157;BME280;60035;52.122;5.406;2023-04-27T08:38:29;102338.72;;;9.36;67.55
72157;BME280;60035;52.122;5.406;2023-04-27T08:40:56;102335.31;;;9.40;66.61
72157;BME280;60035;52.122;5.406;2023-04-27T08:43:34;102334.47;;;9.50;66.24
72157;BME280;60035;52.122;5.406;2023-04-27T08:46:01;102333.59;;;9.59;65.98
72157;BME280;60035;52.122;5.406;2023-04-27T08:48:28;102338.69;;;9.66;64.82
72157;BME280;60035;52.122;5.406;2023-04-27T08:50:55;102340.41;;;9.75;65.04
72157;BME280;60035;52.122;5.406;2023-04-27T08:53:22;102330.97;;;9.91;65.11
72157;BME280;60035;52.122;5.406;2023-04-27T08:55:49;102335.16;;;10.09;64.88
72157;BME280;60035;52.122;5.406;2023-04-27T08:58:15;102326.63;;;10.23;63.21
72157;BME280;60035;52.122;5.406;2023-04-27T09:00:43;102329.16;;;10.26;62.61
72157;BME280;60035;52.122;5.406;2023-04-27T09:03:23;102329.13;;;10.37;63.46
72157;BME280;60035;52.122;5.406;2023-04-27T09:05:51;102336.75;;;10.52;63.32
72157;BME280;60035;52.122;5.406;2023-04-27T09:09:00;102334.97;;;10.63;62.17
72157;BME280;60035;52.122;5.406;2023-04-27T09:11:31;102332.34;;;10.77;61.06
72157;BME280;60035;52.122;5.406;2023-04-27T09:14:01;102328.84;;;10.86;58.76
72157;BME280;60035;52.122;5.406;2023-04-27T09:16:29;102323.69;;;10.91;58.33
72157;BME280;60035;52.122;5.406;2023-04-27T09:18:57;102321.94;;;11.02;58.04
72157;BME280;60035;52.122;5.406;2023-04-27T09:21:28;102323.56;;;11.09;58.97
72157;BME280;60035;52.122;5.406;2023-04-27T09:23:56;102318.34;;;11.23;57.76
72157;BME280;60035;52.122;5.406;2023-04-27T09:26:26;102315.63;;;11.37;56.94
72157;BME280;60035;52.122;5.406;2023-04-27T09:28:54;102322.34;;;11.50;56.38
72157;BME280;60035;52.122;5.406;2023-04-27T09:31:35;102318.97;;;11.47;54.86
72157;BME280;60035;52.122;5.406;2023-04-27T09:34:02;102310.38;;;11.49;55.64
72157;BME280;60035;52.122;5.406;2023-04-27T09:36:29;102302.63;;;11.56;54.98
72157;BME280;60035;52.122;5.406;2023-04-27T09:38:57;102310.22;;;11.66;54.34
72157;BME280;60035;52.122;5.406;2023-04-27T09:41:24;102308.47;;;11.72;54.82
72157;BME280;60035;52.122;5.406;2023-04-27T09:43:52;102300.53;;;11.92;54.95
72157;BME280;60035;52.122;5.406;2023-04-27T09:46:23;102303.91;;;11.98;53.43
72157;BME280;60035;52.122;5.406;2023-04-27T09:48:51;102308.16;;;12.01;52.71
72157;BME280;60035;52.122;5.406;2023-04-27T09:51:18;102310.53;;;12.18;53.32
72157;BME280;60035;52.122;5.406;2023-04-27T09:53:51;102303.53;;;12.31;52.30
72157;BME280;60035;52.122;5.406;2023-04-27T09:56:48;102294.69;;;12.50;52.44
72157;BME280;60035;52.122;5.406;2023-04-27T09:59:40;102299.66;;;12.63;51.58
72157;BME280;60035;52.122;5.406;2023-04-27T10:02:10;102295.22;;;12.71;51.58
72157;BME280;60035;52.122;5.406;2023-04-27T10:07:50;102292.34;;;12.93;48.84
72157;BME280;60035;52.122;5.406;2023-04-27T10:10:17;102296.41;;;13.06;48.40
72157;BME280;60035;52.122;5.406;2023-04-27T10:12:55;102296.38;;;13.08;47.43
72157;BME280;60035;52.122;5.406;2023-04-27T10:15:25;102294.84;;;12.97;45.96
72157;BME280;60035;52.122;5.406;2023-04-27T10:17:55;102293.28;;;12.89;45.50
72157;BME280;60035;52.122;5.406;2023-04-27T10:20:33;102297.50;;;12.93;45.75
72157;BME280;60035;52.122;5.406;2023-04-27T10:23:00;102297.28;;;13.05;45.34
72157;BME280;60035;52.122;5.406;2023-04-27T10:25:28;102304.78;;;13.17;44.72
72157;BME280;60035;52.122;5.406;2023-04-27T10:28:00;102302.91;;;13.27;44.88
72157;BME280;60035;52.122;5.406;2023-04-27T10:30:37;102303.59;;;13.39;44.88
72157;BME280;60035;52.122;5.406;2023-04-27T10:33:08;102295.56;;;13.56;43.80
72157;BME280;60035;52.122;5.406;2023-04-27T10:35:43;102296.13;;;13.73;43.35
72157;BME280;60035;52.122;5.406;2023-04-27T10:38:19;102290.75;;;13.84;43.92
72157;BME280;60035;52.122;5.406;2023-04-27T10:40:57;102289.66;;;13.94;42.81
72157;BME280;60035;52.122;5.406;2023-04-27T10:43:28;102278.50;;;13.95;42.88
72157;BME280;60035;52.122;5.406;2023-04-27T10:46:06;102289.59;;;13.99;43.49
72157;BME280;60035;52.122;5.406;2023-04-27T10:48:33;102293.91;;;13.98;42.71
72157;BME280;60035;52.122;5.406;2023-04-27T10:51:00;102284.59;;;13.91;42.89
72157;BME280;60035;52.122;5.406;2023-04-27T10:53:33;102274.81;;;14.07;43.67
72157;BME280;60035;52.122;5.406;2023-04-27T10:56:01;102284.06;;;14.18;41.72
72157;BME280;60035;52.122;5.406;2023-04-27T10:58:28;102286.53;;;14.22;42.38
72157;BME280;60035;52.122;5.406;2023-04-27T11:01:22;102276.00;;;14.33;42.33
72157;BME280;60035;52.122;5.406;2023-04-27T11:03:57;102268.84;;;14.44;41.45
72157;BME280;60035;52.122;5.406;2023-04-27T11:06:24;102272.78;;;14.61;41.50
72157;BME280;60035;52.122;5.406;2023-04-27T11:08:51;102266.19;;;14.87;41.26
72157;BME280;60035;52.122;5.406;2023-04-27T11:11:18;102260.50;;;14.72;39.51
72157;BME280;60035;52.122;5.406;2023-04-27T11:13:47;102259.00;;;14.63;39.89
72157;BME280;60035;52.122;5.406;2023-04-27T11:16:15;102254.66;;;14.65;39.46
72157;BME280;60035;52.122;5.406;2023-04-27T11:18:41;102248.34;;;14.77;39.19
72157;BME280;60035;52.122;5.406;2023-04-27T11:23:40;102240.13;;;14.97;38.21
72157;BME280;60035;52.122;5.406;2023-04-27T11:26:20;102240.16;;;14.96;39.48
72157;BME280;60035;52.122;5.406;2023-04-27T11:29:09;102235.78;;;15.32;39.96
72157;BME280;60035;52.122;5.406;2023-04-27T11:31:41;102231.97;;;15.46;38.51
72157;BME280;60035;52.122;5.406;2023-04-27T11:34:14;102241.25;;;15.53;38.41
72157;BME280;60035;52.122;5.406;2023-04-27T11:36:41;102231.94;;;15.77;38.20
72157;BME280;60035;52.122;5.406;2023-04-27T11:39:15;102232.94;;;16.03;37.96
72157;BME280;60035;52.122;5.406;2023-04-27T11:41:43;102224.00;;;16.13;36.87
72157;BME280;60035;52.122;5.406;2023-04-27T11:44:11;102222.03;;;16.22;37.08
72157;BME280;60035;52.122;5.406;2023-04-27T11:46:38;102220.09;;;16.28;36.97
72157;BME280;60035;52.122;5.406;2023-04-27T11:49:06;102221.09;;;16.24;37.08
72157;BME280;60035;52.122;5.406;2023-04-27T11:51:38;102221.72;;;16.04;36.67
72157;BME280;60035;52.122;5.406;2023-04-27T11:54:05;102232.28;;;15.96;36.68
72157;BME280;60035;52.122;5.406;2023-04-27T11:56:34;102226.78;;;16.07;36.27
72157;BME280;60035;52.122;5.406;2023-04-27T11:59:01;102218.34;;;16.02;35.46
72157;BME280;60035;52.122;5.406;2023-04-27T12:01:30;102217.19;;;16.11;35.17
72157;BME280;60035;52.122;5.406;2023-04-27T12:04:03;102205.16;;;16.11;35.18
72157;BME280;60035;52.122;5.406;2023-04-27T12:06:30;102211.56;;;16.26;36.40
72157;BME280;60035;52.122;5.406;2023-04-27T12:08:59;102204.28;;;16.38;35.10
72157;BME280;60035;52.122;5.406;2023-04-27T12:11:26;102209.72;;;16.30;35.12
72157;BME280;60035;52.122;5.406;2023-04-27T12:13:53;102210.09;;;16.46;35.55
72157;BME280;60035;52.122;5.406;2023-04-27T12:16:20;102217.81;;;16.73;34.90
72157;BME280;60035;52.122;5.406;2023-04-27T12:18:49;102207.78;;;16.63;34.32
72157;BME280;60035;52.122;5.406;2023-04-27T12:21:16;102211.38;;;16.59;33.82
72157;BME280;60035;52.122;5.406;2023-04-27T12:23:43;102205.19;;;16.63;33.90
72157;BME280;60035;52.122;5.406;2023-04-27T12:26:10;102213.09;;;16.86;34.30
72157;BME280;60035;52.122;5.406;2023-04-27T12:28:40;102209.34;;;17.20;35.24
72157;BME280;60035;52.122;5.406;2023-04-27T12:31:06;102197.00;;;17.28;34.06
72157;BME280;60035;52.122;5.406;2023-04-27T12:33:33;102196.00;;;17.07;33.22
72157;BME280;60035;52.122;5.406;2023-04-27T12:36:00;102190.16;;;17.02;34.41
72157;BME280;60035;52.122;5.406;2023-04-27T12:38:27;102188.66;;;16.94;33.79
72157;BME280;60035;52.122;5.406;2023-04-27T12:40:53;102182.31;;;17.03;34.31
72157;BME280;60035;52.122;5.406;2023-04-27T12:43:20;102184.81;;;17.30;34.66
72157;BME280;60035;52.122;5.406;2023-04-27T12:45:46;102177.66;;;17.60;33.11
72157;BME280;60035;52.122;5.406;2023-04-27T12:48:12;102179.84;;;17.71;33.22
72157;BME280;60035;52.122;5.406;2023-04-27T12:50:42;102181.31;;;17.78;32.90
72157;BME280;60035;52.122;5.406;2023-04-27T12:53:09;102173.94;;;17.90;32.45
72157;BME280;60035;52.122;5.406;2023-04-27T12:55:35;102172.94;;;17.94;32.46
72157;BME280;60035;52.122;5.406;2023-04-27T12:58:02;102178.63;;;18.04;32.38
72157;BME280;60035;52.122;5.406;2023-04-27T13:00:30;102170.72;;;18.29;32.17
72157;BME280;60035;52.122;5.406;2023-04-27T13:02:56;102171.22;;;18.17;31.60